Time;durP1;ratioP1;P1;durP2;ratioP2;P2;SDS_P1;SDS_P2;PMS_P1;PMS_P2;Temp;Humidity;BMP_temperature;BMP_pressure;BME280_temperature;BME280_humidity;BME280_pressure;Samples;Min_cycle;Max_cycle;Signal;HPM_P1;HPM_P2
2023/12/05 00:00:48;;;;;;;5.67;4.90;;;8.50;99.90;;;;;;5044422;28;20699;-81
2023/12/05 00:03:13;;;;;;;6.57;5.07;;;8.60;99.90;;;;;;5046328;28;20205;-79
2023/12/05 00:05:39;;;;;;;7.30;4.90;;;8.60;99.90;;;;;;5045098;28;20177;-80
2023/12/05 00:08:05;;;;;;;7.67;5.77;;;8.60;99.90;;;;;;5044017;28;20180;-81
2023/12/05 00:10:30;;;;;;;8.07;5.20;;;8.50;99.90;;;;;;5045561;28;20193;-81
2023/12/05 00:12:56;;;;;;;7.33;5.93;;;8.60;99.90;;;;;;5043643;28;20173;-82
2023/12/05 00:15:22;;;;;;;10.07;6.47;;;8.50;99.90;;;;;;5044294;28;20230;-83
2023/12/05 00:17:47;;;;;;;6.63;5.70;;;8.50;99.90;;;;;;5046047;28;20545;-81
2023/12/05 00:20:13;;;;;;;8.47;5.77;;;8.50;99.90;;;;;;5044765;28;20181;-80
2023/12/05 00:22:39;;;;;;;7.23;6.30;;;8.60;99.90;;;;;;5046359;28;20232;-80
2023/12/05 00:25:05;;;;;;;6.63;5.70;;;8.50;99.90;;;;;;5043352;28;20177;-80
2023/12/05 00:27:30;;;;;;;6.30;5.27;;;8.40;99.90;;;;;;5044118;28;20179;-83
2023/12/05 00:29:56;;;;;;;7.50;6.70;;;8.40;99.90;;;;;;5045588;28;20169;-81
2023/12/05 00:32:22;;;;;;;8.87;7.10;;;8.40;99.90;;;;;;5044518;28;20589;-80
2023/12/05 00:34:48;;;;;;;9.40;8.43;;;8.40;99.90;;;;;;5044615;28;20226;-80
2023/12/05 00:37:14;;;;;;;9.50;8.50;;;8.20;99.90;;;;;;5044459;28;20261;-79
2023/12/05 00:39:39;;;;;;;9.53;8.53;;;8.00;99.90;;;;;;5043980;28;20185;-79
2023/12/05 00:42:06;;;;;;;11.27;9.03;;;8.10;99.90;;;;;;5043901;28;20204;-80
2023/12/05 00:44:31;;;;;;;10.90;9.67;;;8.00;99.90;;;;;;5043611;28;20208;-80
2023/12/05 00:47:00;;;;;;;15.03;9.57;;;7.70;99.90;;;;;;5043591;28;20603;-80
2023/12/05 00:49:25;;;;;;;10.73;9.63;;;7.60;99.90;;;;;;5042182;28;20200;-80
2023/12/05 00:51:51;;;;;;;12.87;9.33;;;7.70;99.90;;;;;;5045200;28;20261;-81
2023/12/05 00:54:17;;;;;;;11.47;10.27;;;7.60;99.90;;;;;;5042247;28;20231;-80
2023/12/05 00:56:43;;;;;;;10.70;9.60;;;7.60;99.90;;;;;;5044884;28;20518;-80
2023/12/05 00:59:08;;;;;;;11.27;9.97;;;7.60;99.90;;;;;;5044392;28;20526;-79
2023/12/05 01:01:34;;;;;;;10.03;8.93;;;7.50;99.90;;;;;;5042416;28;20579;-80
2023/12/05 01:04:00;;;;;;;11.70;9.60;;;7.40;99.90;;;;;;5046719;28;20188;-82
2023/12/05 01:06:25;;;;;;;11.00;9.30;;;7.40;99.90;;;;;;5043851;28;20174;-80
2023/12/05 01:08:51;;;;;;;10.43;9.33;;;7.30;99.90;;;;;;5043214;28;20680;-81
2023/12/05 01:11:17;;;;;;;12.03;9.40;;;7.30;99.90;;;;;;5044107;28;20489;-80
2023/12/05 01:13:45;;;;;;;11.87;9.20;;;7.30;99.90;;;;;;5044717;28;20653;-81
2023/12/05 01:16:12;;;;;;;10.27;8.90;;;7.30;99.90;;;;;;5044053;28;20204;-81
2023/12/05 01:18:37;;;;;;;12.00;10.23;;;7.40;99.90;;;;;;5044105;28;20196;-81
2023/12/05 01:21:03;;;;;;;11.53;10.00;;;7.40;99.90;;;;;;5042349;28;20732;-80
2023/12/05 01:23:29;;;;;;;11.17;9.13;;;7.30;99.90;;;;;;5043799;28;20185;-80
2023/12/05 01:25:55;;;;;;;11.83;10.57;;;7.30;99.90;;;;;;5045174;28;20524;-80
2023/12/05 01:28:20;;;;;;;13.17;10.33;;;7.40;99.90;;;;;;5043851;28;20165;-80
2023/12/05 01:30:46;;;;;;;11.43;10.07;;;7.40;99.90;;;;;;5044606;28;20260;-79
2023/12/05 01:33:12;;;;;;;12.90;10.57;;;7.40;99.90;;;;;;5041649;28;20413;-80
2023/12/05 01:35:38;;;;;;;11.70;10.17;;;7.40;99.90;;;;;;5044136;28;20164;-81
2023/12/05 01:38:03;;;;;;;11.40;10.30;;;7.50;99.90;;;;;;5045139;28;20204;-81
2023/12/05 01:40:29;;;;;;;14.20;11.17;;;7.40;99.90;;;;;;5040955;28;20166;-81
2023/12/05 01:42:55;;;;;;;11.33;10.23;;;7.30;99.90;;;;;;5044856;28;20730;-82
2023/12/05 01:45:20;;;;;;;12.90;10.57;;;7.40;99.90;;;;;;5043847;28;20169;-80
2023/12/05 01:47:48;;;;;;;11.27;10.07;;;7.40;99.90;;;;;;5045487;28;20665;-80
2023/12/05 01:50:20;;;;;;;10.87;9.70;;;7.50;99.90;;;;;;5043620;28;20659;-80
2023/12/05 01:52:52;;;;;;;11.33;10.10;;;7.40;99.90;;;;;;5044405;28;20181;-81
2023/12/05 01:55:20;;;;;;;13.80;10.33;;;7.40;99.90;;;;;;5043450;28;20170;-79
2023/12/05 01:57:47;;;;;;;11.33;10.17;;;7.40;99.90;;;;;;5044548;28;20193;-81
2023/12/05 02:00:15;;;;;;;11.13;9.87;;;7.40;99.90;;;;;;5043275;28;20271;-80
2023/12/05 02:02:41;;;;;;;12.03;10.67;;;7.50;99.90;;;;;;5043197;28;20240;-79
2023/12/05 02:05:09;;;;;;;11.20;9.53;;;7.50;99.90;;;;;;5041987;28;20177;-80
2023/12/05 02:07:35;;;;;;;10.93;9.83;;;7.50;99.90;;;;;;5044158;28;20172;-81
2023/12/05 02:10:01;;;;;;;11.50;10.13;;;7.50;99.90;;;;;;5046017;28;20623;-80
2023/12/05 02:12:28;;;;;;;11.50;10.03;;;7.60;99.90;;;;;;5043398;28;20204;-81
2023/12/05 02:14:54;;;;;;;10.90;9.80;;;7.70;99.90;;;;;;5043225;28;20548;-79
2023/12/05 02:17:51;;;;;;;12.57;10.17;;;7.70;99.90;;;;;;5043424;28;20184;-80
2023/12/05 02:20:51;;;;;;;12.00;10.13;;;7.60;99.90;;;;;;5040066;28;20640;-80
2023/12/05 02:23:25;;;;;;;11.20;10.07;;;7.60;99.90;;;;;;5042233;28;20217;-80
2023/12/05 02:25:57;;;;;;;12.63;10.37;;;7.70;99.90;;;;;;5045516;28;20180;-80
2023/12/05 02:28:24;;;;;;;11.23;10.00;;;7.70;99.90;;;;;;5043023;28;20205;-79
2023/12/05 02:30:50;;;;;;;10.87;9.63;;;7.70;99.90;;;;;;5044415;28;20177;-81
2023/12/05 02:33:16;;;;;;;11.90;10.60;;;7.60;99.90;;;;;;5042547;28;20264;-80
2023/12/05 02:35:42;;;;;;;10.93;9.83;;;7.60;99.90;;;;;;5044136;28;20260;-81
2023/12/05 02:38:48;;;;;;;11.30;9.67;;;7.60;99.90;;;;;;5046163;28;20172;-82
2023/12/05 02:41:21;;;;;;;10.33;9.27;;;7.60;99.90;;;;;;4982059;28;20206;-80
2023/12/05 02:44:11;;;;;;;11.57;9.83;;;7.60;99.90;;;;;;5032753;28;20177;-80
2023/12/05 02:46:39;;;;;;;11.27;10.07;;;7.60;99.90;;;;;;5041135;28;20248;-80
2023/12/05 02:49:05;;;;;;;10.77;9.57;;;7.50;99.90;;;;;;5042747;28;20192;-80
2023/12/05 02:51:31;;;;;;;11.30;9.80;;;7.40;99.90;;;;;;5045466;28;20192;-79
2023/12/05 02:54:01;;;;;;;10.03;9.03;;;7.40;99.90;;;;;;5044525;28;20926;-80
2023/12/05 02:56:29;;;;;;;10.53;9.43;;;7.40;99.90;;;;;;5042453;28;20164;-79
2023/12/05 02:58:54;;;;;;;10.57;9.00;;;7.30;99.90;;;;;;5044214;28;20172;-80
2023/12/05 03:01:20;;;;;;;11.87;10.17;;;7.30;99.90;;;;;;5042801;28;20275;-81
2023/12/05 03:03:45;;;;;;;11.33;10.23;;;7.40;99.90;;;;;;5044816;28;20201;-81
2023/12/05 03:06:11;;;;;;;11.30;10.20;;;7.30;99.90;;;;;;5044413;28;20629;-79
2023/12/05 03:08:37;;;;;;;10.70;9.60;;;7.40;99.90;;;;;;5042056;28;20205;-80
2023/12/05 03:11:02;;;;;;;10.87;9.43;;;7.40;99.90;;;;;;5041977;28;20695;-79
2023/12/05 03:13:28;;;;;;;10.63;9.27;;;7.40;99.90;;;;;;5039864;28;20172;-81
2023/12/05 03:15:54;;;;;;;10.43;9.37;;;7.50;99.90;;;;;;5042110;28;20169;-81
2023/12/05 03:18:19;;;;;;;11.50;10.27;;;7.40;99.90;;;;;;5040227;28;20748;-81
2023/12/05 03:20:45;;;;;;;12.47;9.30;;;7.40;99.90;;;;;;5040800;28;20575;-82
2023/12/05 03:23:11;;;;;;;11.10;9.63;;;7.40;99.90;;;;;;5041764;28;20189;-81
2023/12/05 03:25:36;;;;;;;10.37;9.27;;;7.40;99.90;;;;;;5039694;28;20298;-80
2023/12/05 03:28:02;;;;;;;10.53;9.53;;;7.50;99.90;;;;;;5041365;28;20188;-82
2023/12/05 03:30:28;;;;;;;11.40;10.13;;;7.60;99.90;;;;;;5042131;28;20649;-84
2023/12/05 03:32:53;;;;;;;10.97;9.87;;;7.70;99.90;;;;;;5041479;28;20196;-83
2023/12/05 03:35:19;;;;;;;10.87;9.83;;;7.70;99.90;;;;;;5041503;28;20575;-81
2023/12/05 03:37:45;;;;;;;10.90;9.80;;;7.70;99.90;;;;;;5041965;28;20256;-80
2023/12/05 03:40:11;;;;;;;10.27;9.00;;;7.70;99.90;;;;;;5040169;28;20173;-80
2023/12/05 03:42:36;;;;;;;11.07;8.63;;;7.50;99.90;;;;;;5042571;28;20217;-80
2023/12/05 03:45:02;;;;;;;13.17;9.20;;;7.50;99.90;;;;;;5039372;28;20191;-81
2023/12/05 03:47:28;;;;;;;10.70;9.60;;;7.50;99.90;;;;;;5041434;28;20256;-79
2023/12/05 03:49:54;;;;;;;11.10;9.87;;;7.60;99.90;;;;;;5041758;28;20268;-81
2023/12/05 03:52:19;;;;;;;10.43;9.33;;;7.50;99.90;;;;;;5037382;28;20708;-80
2023/12/05 03:54:45;;;;;;;10.63;9.50;;;7.50;99.90;;;;;;5040588;28;20173;-80
2023/12/05 03:57:11;;;;;;;11.37;10.13;;;7.60;99.90;;;;;;5046192;28;20166;-80
2023/12/05 03:59:36;;;;;;;11.77;10.30;;;7.50;99.90;;;;;;5043772;28;20638;-82
2023/12/05 04:02:02;;;;;;;10.70;9.57;;;7.40;99.90;;;;;;5044550;28;20720;-81
2023/12/05 04:04:28;;;;;;;11.03;9.73;;;7.30;99.90;;;;;;5044626;28;20177;-81
2023/12/05 04:06:53;;;;;;;11.17;9.97;;;7.40;99.90;;;;;;5043085;28;20963;-81
2023/12/05 04:09:19;;;;;;;12.13;10.97;;;7.50;99.90;;;;;;5046224;28;20686;-80
2023/12/05 04:11:44;;;;;;;11.90;10.00;;;7.50;99.90;;;;;;5045223;28;20639;-81
2023/12/05 04:14:10;;;;;;;12.77;10.73;;;7.40;99.90;;;;;;5043699;28;20222;-80
2023/12/05 04:16:36;;;;;;;11.43;10.23;;;7.40;99.90;;;;;;5044090;28;20180;-81
2023/12/05 04:19:01;;;;;;;11.97;10.77;;;7.40;99.90;;;;;;5039794;28;20524;-80
2023/12/05 04:21:27;;;;;;;12.23;10.93;;;7.40;99.90;;;;;;5033640;28;20214;-81
2023/12/05 04:23:53;;;;;;;12.17;10.87;;;7.40;99.90;;;;;;5033326;28;20282;-80
2023/12/05 04:26:20;;;;;;;12.80;10.70;;;7.40;99.90;;;;;;5035277;28;20180;-80
2023/12/05 04:28:46;;;;;;;12.47;11.17;;;7.40;99.90;;;;;;5034750;28;20244;-80
2023/12/05 04:31:13;;;;;;;11.90;10.70;;;7.40;99.90;;;;;;5035108;28;20178;-80
2023/12/05 04:33:39;;;;;;;12.40;10.73;;;7.30;99.90;;;;;;5035010;28;20224;-80
2023/12/05 04:36:05;;;;;;;14.13;12.63;;;7.20;99.90;;;;;;5033228;28;20184;-80
2023/12/05 04:38:31;;;;;;;16.23;13.77;;;7.10;99.90;;;;;;5032225;28;20247;-82
2023/12/05 04:40:57;;;;;;;16.87;14.43;;;7.20;99.90;;;;;;5034041;28;20263;-81
2023/12/05 04:43:22;;;;;;;16.20;14.40;;;7.20;99.90;;;;;;5033704;28;20178;-80
2023/12/05 04:45:48;;;;;;;17.60;14.10;;;7.20;99.90;;;;;;5034393;28;20652;-81
2023/12/05 04:48:13;;;;;;;17.80;15.50;;;7.20;99.90;;;;;;5034539;28;20600;-81
2023/12/05 04:50:39;;;;;;;17.60;14.33;;;7.20;99.90;;;;;;5034518;28;20166;-80
2023/12/05 04:53:05;;;;;;;18.90;14.47;;;7.30;99.90;;;;;;5033323;28;20649;-80
2023/12/05 04:55:30;;;;;;;17.03;14.77;;;7.30;99.90;;;;;;5033235;28;20188;-82
2023/12/05 04:57:56;;;;;;;16.10;14.40;;;7.40;99.90;;;;;;5033702;28;20188;-81
2023/12/05 05:00:22;;;;;;;16.80;14.90;;;7.40;99.90;;;;;;5034507;28;20178;-80
2023/12/05 05:02:47;;;;;;;16.67;14.77;;;7.40;99.90;;;;;;5034493;28;20220;-80
2023/12/05 05:05:13;;;;;;;15.57;13.30;;;7.40;99.90;;;;;;5033070;28;20205;-83
2023/12/05 05:07:39;;;;;;;15.20;12.73;;;7.30;99.90;;;;;;5032480;28;20627;-82
2023/12/05 05:10:05;;;;;;;14.53;13.03;;;7.30;99.90;;;;;;5032679;28;20209;-81
2023/12/05 05:12:31;;;;;;;14.93;13.10;;;7.20;99.90;;;;;;5032774;28;20221;-81
2023/12/05 05:14:57;;;;;;;14.70;12.67;;;7.30;99.90;;;;;;5032843;28;20528;-81
2023/12/05 05:17:22;;;;;;;13.63;12.20;;;7.40;99.90;;;;;;5032957;28;20638;-82
2023/12/05 05:19:48;;;;;;;15.10;12.43;;;7.40;99.90;;;;;;5033477;28;20200;-81
2023/12/05 05:22:14;;;;;;;13.27;11.87;;;7.30;99.90;;;;;;5032515;28;20208;-83
2023/12/05 05:24:40;;;;;;;13.97;12.50;;;7.30;99.90;;;;;;5032730;28;20216;-80
2023/12/05 05:27:06;;;;;;;16.67;13.43;;;7.30;99.90;;;;;;5033256;28;20170;-79
2023/12/05 05:29:31;;;;;;;15.13;12.37;;;7.40;99.90;;;;;;5032549;28;20602;-80
2023/12/05 05:31:57;;;;;;;13.90;12.17;;;7.20;99.90;;;;;;5032781;28;20174;-80
2023/12/05 05:34:23;;;;;;;14.73;12.13;;;7.10;99.90;;;;;;5031760;28;20606;-80
2023/12/05 05:36:49;;;;;;;14.17;12.03;;;7.00;99.90;;;;;;5033532;28;20165;-80
2023/12/05 05:39:14;;;;;;;14.60;13.00;;;7.00;99.90;;;;;;5032547;28;20616;-80
2023/12/05 05:41:40;;;;;;;15.00;13.00;;;7.00;99.90;;;;;;5032362;28;20205;-80
2023/12/05 05:44:06;;;;;;;16.33;13.30;;;6.90;99.90;;;;;;5032548;28;20636;-81
2023/12/05 05:46:31;;;;;;;15.80;13.33;;;6.90;99.90;;;;;;5032038;28;20544;-83
2023/12/05 05:48:57;;;;;;;17.63;13.93;;;6.80;99.90;;;;;;5032717;28;20630;-80
2023/12/05 05:51:24;;;;;;;18.30;15.03;;;6.80;99.90;;;;;;5031533;28;20186;-80
2023/12/05 05:53:49;;;;;;;20.30;16.30;;;6.70;99.90;;;;;;5032064;28;20162;-80
2023/12/05 05:56:15;;;;;;;20.47;16.63;;;6.70;99.90;;;;;;5033184;28;20173;-81
2023/12/05 05:58:41;;;;;;;20.80;17.37;;;6.70;99.90;;;;;;5031920;28;20260;-80
2023/12/05 06:01:10;;;;;;;19.30;15.90;;;6.70;99.90;;;;;;5030767;28;20295;-79
2023/12/05 06:03:36;;;;;;;21.30;17.83;;;6.70;99.90;;;;;;5031929;28;20311;-80
2023/12/05 06:06:02;;;;;;;25.30;19.67;;;6.60;99.90;;;;;;5032330;28;20252;-81
2023/12/05 06:08:27;;;;;;;25.10;20.53;;;6.70;99.90;;;;;;5032456;28;20189;-80
2023/12/05 06:10:54;;;;;;;28.30;20.77;;;6.60;99.90;;;;;;5032427;28;20613;-80
2023/12/05 06:13:19;;;;;;;30.13;23.40;;;6.50;99.90;;;;;;5032784;28;20220;-80
2023/12/05 06:15:45;;;;;;;30.83;22.93;;;6.50;99.90;;;;;;5030506;28;20248;-80
2023/12/05 06:18:15;;;;;;;29.17;22.60;;;6.40;99.90;;;;;;5030816;28;20548;-82
2023/12/05 06:20:42;;;;;;;31.70;23.67;;;6.30;99.90;;;;;;5030949;28;20188;-80
2023/12/05 06:23:07;;;;;;;29.87;22.17;;;6.30;99.90;;;;;;5030196;28;20181;-81
2023/12/05 06:25:33;;;;;;;33.37;23.73;;;6.40;99.90;;;;;;5031265;28;20188;-80
2023/12/05 06:27:59;;;;;;;36.13;25.57;;;6.20;99.90;;;;;;5032929;28;20637;-80
2023/12/05 06:30:25;;;;;;;31.10;24.13;;;6.30;99.90;;;;;;5031130;28;20491;-79
2023/12/05 06:32:50;;;;;;;33.70;24.80;;;6.20;99.90;;;;;;5032208;28;20172;-81
2023/12/05 06:35:16;;;;;;;35.57;26.87;;;6.20;99.90;;;;;;5029945;28;20268;-80
2023/12/05 06:37:42;;;;;;;37.17;25.83;;;6.20;99.90;;;;;;5030906;28;20166;-83
2023/12/05 06:40:08;;;;;;;35.07;24.77;;;6.10;99.90;;;;;;5032482;28;20605;-80
2023/12/05 06:42:35;;;;;;;41.03;26.13;;;6.00;99.90;;;;;;5032537;28;20201;-81
2023/12/05 06:45:02;;;;;;;38.77;28.20;;;5.90;99.90;;;;;;5029598;28;20473;-81
2023/12/05 06:47:28;;;;;;;38.67;26.83;;;5.90;99.90;;;;;;5030577;28;20182;-81
2023/12/05 06:50:04;;;;;;;;;;;;;;;;;;;;;
2023/12/05 06:52:30;;;;;;;38.67;26.20;;;5.80;99.90;;;;;;5031490;28;20180;-82
2023/12/05 06:54:55;;;;;;;36.47;26.77;;;5.90;99.90;;;;;;5030854;28;20268;-81
2023/12/05 06:57:21;;;;;;;38.60;26.57;;;5.90;99.90;;;;;;5021971;28;20607;-82
2023/12/05 06:59:47;;;;;;;34.00;24.67;;;5.80;99.90;;;;;;5019814;28;20257;-83
2023/12/05 07:02:12;;;;;;;38.43;25.83;;;5.80;99.90;;;;;;5022519;28;20318;-81
2023/12/05 07:04:38;;;;;;;32.53;23.77;;;5.80;99.90;;;;;;5029475;28;20176;-81
2023/12/05 07:07:04;;;;;;;33.73;23.50;;;5.80;99.90;;;;;;5029669;28;20185;-79
2023/12/05 07:09:31;;;;;;;34.43;24.50;;;5.90;99.90;;;;;;5027826;28;20205;-80
2023/12/05 07:11:57;;;;;;;33.10;23.90;;;5.90;99.90;;;;;;5014899;28;20182;-82
2023/12/05 07:14:22;;;;;;;32.03;22.43;;;5.80;99.90;;;;;;5024398;28;20188;-81
2023/12/05 07:16:48;;;;;;;26.47;19.20;;;5.80;99.90;;;;;;5030148;28;20184;-82
2023/12/05 07:19:14;;;;;;;28.53;20.53;;;5.70;99.90;;;;;;5024201;28;20178;-81
2023/12/05 07:21:39;;;;;;;29.07;21.00;;;5.60;99.90;;;;;;5027188;28;20217;-82
2023/12/05 07:24:05;;;;;;;30.57;21.37;;;5.80;99.90;;;;;;5027494;28;20495;-82
2023/12/05 07:26:30;;;;;;;29.83;21.17;;;5.80;99.90;;;;;;5029254;28;20304;-84
2023/12/05 07:28:56;;;;;;;29.40;20.10;;;5.80;99.90;;;;;;5029092;28;20523;-83
2023/12/05 07:31:22;;;;;;;28.73;19.60;;;5.70;99.90;;;;;;5031884;28;20655;-82
2023/12/05 07:33:48;;;;;;;32.67;22.33;;;5.70;99.90;;;;;;5034629;28;20735;-83
2023/12/05 07:36:14;;;;;;;34.10;22.33;;;5.80;99.90;;;;;;5033350;28;20220;-82
2023/12/05 07:38:39;;;;;;;34.40;23.67;;;5.70;99.90;;;;;;5032661;28;20174;-82
2023/12/05 07:41:05;;;;;;;32.37;22.30;;;5.80;99.90;;;;;;5033625;28;20206;-83
2023/12/05 07:43:31;;;;;;;37.53;25.00;;;5.70;99.90;;;;;;5033336;28;20181;-84
2023/12/05 07:45:57;;;;;;;40.70;24.27;;;5.90;99.90;;;;;;5033388;28;20165;-82
2023/12/05 07:48:23;;;;;;;39.93;26.23;;;5.70;99.90;;;;;;5034944;28;20173;-81
2023/12/05 07:50:48;;;;;;;38.10;24.33;;;5.80;99.90;;;;;;5033748;28;20265;-82
2023/12/05 07:53:14;;;;;;;41.40;26.27;;;5.90;99.90;;;;;;5033923;28;20274;-82
2023/12/05 07:55:40;;;;;;;34.07;22.73;;;5.80;99.90;;;;;;5028669;28;20181;-82
2023/12/05 07:58:05;;;;;;;37.00;24.13;;;5.70;99.90;;;;;;5030173;28;20169;-83
2023/12/05 08:00:31;;;;;;;37.27;25.17;;;5.70;99.90;;;;;;5036573;28;20165;-82
2023/12/05 08:02:57;;;;;;;37.03;25.27;;;5.80;99.90;;;;;;5034108;28;20596;-83
2023/12/05 08:05:23;;;;;;;36.47;23.80;;;5.90;99.90;;;;;;5033951;28;20182;-84
2023/12/05 08:07:49;;;;;;;40.10;26.23;;;5.70;99.90;;;;;;5034623;28;20716;-83
2023/12/05 08:10:14;;;;;;;39.47;27.07;;;5.60;99.90;;;;;;5034037;28;20549;-84
2023/12/05 08:12:40;;;;;;;42.77;29.30;;;5.60;99.90;;;;;;5033355;28;20177;-81
2023/12/05 08:15:07;;;;;;;44.80;28.37;;;5.70;99.90;;;;;;5033065;28;20219;-84
2023/12/05 08:17:32;;;;;;;47.70;30.67;;;5.70;99.90;;;;;;5033155;28;20180;-84
2023/12/05 08:19:58;;;;;;;49.80;29.70;;;5.70;99.90;;;;;;5033291;28;20179;-84
2023/12/05 08:22:25;;;;;;;50.23;33.30;;;5.90;99.90;;;;;;5033504;28;20243;-84
2023/12/05 08:24:51;;;;;;;54.73;35.03;;;5.80;99.90;;;;;;5033818;28;20268;-82
2023/12/05 08:27:16;;;;;;;53.27;33.53;;;5.80;99.90;;;;;;5033658;28;20660;-83
2023/12/05 08:29:42;;;;;;;49.83;31.63;;;5.90;99.90;;;;;;5033943;28;20579;-83
2023/12/05 08:32:09;;;;;;;54.47;34.17;;;5.80;99.90;;;;;;5033807;28;20184;-82
2023/12/05 08:34:34;;;;;;;51.43;34.17;;;5.70;99.90;;;;;;5033537;28;20204;-81
2023/12/05 08:37:01;;;;;;;57.73;35.10;;;5.70;99.90;;;;;;5033589;28;20174;-81
2023/12/05 08:39:26;;;;;;;63.30;36.67;;;5.80;99.90;;;;;;5033439;28;20224;-82
2023/12/05 08:41:52;;;;;;;60.03;36.63;;;5.80;99.90;;;;;;5032975;28;20612;-82
2023/12/05 08:44:21;;;;;;;61.67;37.70;;;5.80;99.90;;;;;;5033232;28;20192;-83
2023/12/05 08:46:47;;;;;;;60.10;36.87;;;5.80;99.90;;;;;;5033405;28;20181;-83
2023/12/05 08:49:13;;;;;;;50.87;32.67;;;5.80;99.90;;;;;;5032627;28;20196;-83
2023/12/05 08:51:39;;;;;;;49.63;30.90;;;5.80;99.90;;;;;;5027000;28;20193;-83
2023/12/05 08:54:05;;;;;;;52.23;32.80;;;5.70;99.90;;;;;;5019289;28;20182;-82
2023/12/05 08:56:32;;;;;;;53.90;33.57;;;5.60;99.90;;;;;;5012984;28;20174;-83
2023/12/05 08:58:58;;;;;;;52.27;32.83;;;5.60;99.90;;;;;;5013211;28;20232;-82
2023/12/05 09:01:23;;;;;;;52.77;34.30;;;5.60;99.90;;;;;;5012936;28;20229;-82
2023/12/05 09:03:52;;;;;;;55.63;34.30;;;5.60;99.90;;;;;;5013164;28;20189;-83
2023/12/05 09:06:18;;;;;;;51.10;33.97;;;5.60;99.90;;;;;;5013068;28;20176;-84
2023/12/05 09:08:43;;;;;;;60.73;34.37;;;5.70;99.90;;;;;;5014310;28;20530;-82
2023/12/05 09:11:12;;;;;;;52.40;33.67;;;6.00;99.90;;;;;;5014219;28;20174;-83
2023/12/05 09:13:37;;;;;;;54.90;32.67;;;5.90;99.90;;;;;;5013248;28;20265;-82
2023/12/05 09:16:04;;;;;;;54.37;33.70;;;6.00;99.90;;;;;;5030019;28;20265;-83
2023/12/05 09:18:31;;;;;;;47.33;30.83;;;5.90;99.90;;;;;;5022906;28;20186;-82
2023/12/05 09:20:57;;;;;;;44.77;29.33;;;6.00;99.90;;;;;;5013031;28;20186;-82
2023/12/05 09:23:23;;;;;;;38.20;24.83;;;6.00;99.90;;;;;;5012905;28;20194;-82
2023/12/05 09:25:49;;;;;;;38.13;26.83;;;6.10;99.90;;;;;;5012655;28;20266;-83
2023/12/05 09:28:15;;;;;;;32.57;22.80;;;6.10;99.90;;;;;;5012638;28;20182;-83
2023/12/05 09:30:40;;;;;;;31.37;22.53;;;6.20;99.90;;;;;;5029346;28;20569;-83
2023/12/05 09:33:06;;;;;;;29.77;19.97;;;6.20;99.90;;;;;;5012406;28;20623;-84
2023/12/05 09:35:32;;;;;;;24.87;18.50;;;6.10;99.90;;;;;;5012610;28;20220;-83
2023/12/05 09:37:58;;;;;;;26.00;18.57;;;6.10;99.90;;;;;;5012868;28;20185;-82
2023/12/05 09:40:24;;;;;;;24.97;18.47;;;6.00;99.90;;;;;;5028647;28;20635;-82
2023/12/05 09:42:53;;;;;;;21.67;17.27;;;6.20;99.90;;;;;;5012394;28;20245;-83
2023/12/05 09:45:20;;;;;;;25.17;18.63;;;6.10;99.90;;;;;;5012311;28;20638;-83
2023/12/05 09:47:47;;;;;;;25.33;19.13;;;5.90;99.90;;;;;;5013857;28;20179;-83
2023/12/05 09:50:13;;;;;;;23.93;16.60;;;5.90;99.90;;;;;;5028402;28;20224;-85
2023/12/05 09:52:41;;;;;;;26.43;19.83;;;5.90;99.90;;;;;;5011770;28;20182;-83
2023/12/05 09:55:07;;;;;;;27.37;19.13;;;6.00;99.90;;;;;;5011841;28;20184;-82
2023/12/05 09:57:36;;;;;;;21.73;16.93;;;5.90;99.90;;;;;;5012100;28;20173;-83
2023/12/05 10:00:02;;;;;;;22.27;17.03;;;5.80;99.90;;;;;;5012430;28;20236;-82
2023/12/05 10:02:30;;;;;;;23.60;18.57;;;5.80;99.90;;;;;;5011705;28;20632;-82
2023/12/05 10:05:02;;;;;;;23.13;17.97;;;5.90;99.90;;;;;;5011639;28;20197;-83
2023/12/05 10:07:29;;;;;;;22.77;17.53;;;6.00;99.90;;;;;;5013308;28;20217;-82
2023/12/05 10:09:56;;;;;;;23.20;18.03;;;6.10;99.90;;;;;;5011252;28;20201;-82
2023/12/05 10:12:22;;;;;;;23.10;17.43;;;6.30;99.90;;;;;;5013310;28;20308;-83
2023/12/05 10:14:47;;;;;;;20.33;17.03;;;6.30;99.90;;;;;;5011302;28;20174;-84
2023/12/05 10:17:14;;;;;;;21.10;17.20;;;6.20;99.90;;;;;;5028246;28;20183;-84
2023/12/05 10:19:39;;;;;;;22.63;17.10;;;6.30;99.90;;;;;;5027936;28;20544;-82
2023/12/05 10:22:06;;;;;;;22.97;16.97;;;6.40;99.90;;;;;;5011539;28;20711;-81
2023/12/05 10:24:45;;;;;;;25.73;18.40;;;6.10;99.90;;;;;;5011245;28;20510;-82
2023/12/05 10:27:11;;;;;;;29.03;18.60;;;6.20;99.90;;;;;;5013019;28;20176;-82
2023/12/05 10:29:41;;;;;;;28.33;19.10;;;6.20;99.90;;;;;;5011719;28;20174;-82
2023/12/05 10:32:09;;;;;;;28.63;19.30;;;6.10;99.90;;;;;;5011411;28;20219;-82
2023/12/05 10:34:48;;;;;;;25.57;18.50;;;6.20;99.90;;;;;;5011383;28;20175;-82
2023/12/05 10:37:14;;;;;;;27.63;19.17;;;6.20;99.90;;;;;;5011056;28;20265;-82
2023/12/05 10:39:40;;;;;;;26.07;19.23;;;6.10;99.90;;;;;;5010924;28;20171;-82
2023/12/05 10:42:08;;;;;;;28.47;19.47;;;6.10;99.90;;;;;;5011153;28;20233;-81
2023/12/05 10:44:40;;;;;;;28.40;20.40;;;6.00;99.90;;;;;;5010918;28;20231;-83
2023/12/05 10:47:08;;;;;;;26.57;18.43;;;6.10;99.90;;;;;;5011246;28;20547;-84
2023/12/05 10:49:34;;;;;;;30.83;19.67;;;6.20;99.90;;;;;;5011238;28;20182;-83
2023/12/05 10:52:03;;;;;;;31.87;20.93;;;6.30;99.90;;;;;;5027353;28;20630;-83
2023/12/05 10:54:29;;;;;;;32.97;21.23;;;6.30;99.90;;;;;;5011061;28;20803;-83
2023/12/05 10:56:57;;;;;;;33.43;22.60;;;6.20;99.90;;;;;;5011012;28;20185;-83
2023/12/05 10:59:27;;;;;;;31.57;22.70;;;6.10;99.90;;;;;;5011280;28;20180;-82
2023/12/05 11:01:56;;;;;;;35.90;22.67;;;6.10;99.90;;;;;;5012187;28;20634;-82
2023/12/05 11:04:25;;;;;;;37.17;23.77;;;6.10;99.90;;;;;;5012106;28;20186;-81
2023/12/05 11:06:54;;;;;;;37.63;24.13;;;6.00;99.90;;;;;;5015334;28;20180;-82
2023/12/05 11:09:23;;;;;;;32.37;21.90;;;6.10;99.90;;;;;;5015457;28;20217;-82
2023/12/05 11:11:52;;;;;;;32.37;21.37;;;6.00;99.90;;;;;;5016436;28;20166;-82
2023/12/05 11:14:21;;;;;;;37.37;23.13;;;6.00;99.90;;;;;;5014914;28;20181;-81
2023/12/05 11:16:50;;;;;;;33.93;21.77;;;6.00;99.90;;;;;;5015052;28;20179;-82
2023/12/05 11:19:31;;;;;;;33.13;22.80;;;6.00;99.90;;;;;;5015098;28;20174;-83
2023/12/05 11:22:23;;;;;;;39.73;23.53;;;6.00;99.90;;;;;;5015206;28;20238;-83
2023/12/05 11:25:16;;;;;;;39.83;23.87;;;6.10;99.90;;;;;;5015370;28;20174;-82
2023/12/05 11:28:11;;;;;;;36.67;22.60;;;5.80;99.90;;;;;;5016044;28;20170;-83
2023/12/05 11:30:49;;;;;;;39.30;23.37;;;5.80;99.90;;;;;;5014968;28;20292;-81
2023/12/05 11:33:45;;;;;;;41.83;24.13;;;5.70;99.90;;;;;;5014706;28;20717;-82
2023/12/05 11:36:40;;;;;;;42.50;26.33;;;5.70;99.90;;;;;;4987599;28;20182;-82
2023/12/05 11:39:06;;;;;;;41.90;24.47;;;5.60;99.90;;;;;;5022864;28;20186;-82
2023/12/05 11:41:32;;;;;;;39.43;25.30;;;5.80;99.90;;;;;;5034455;28;20197;-82
2023/12/05 11:44:34;;;;;;;38.27;22.93;;;5.60;99.90;;;;;;5034751;28;20169;-82
2023/12/05 11:47:03;;;;;;;34.87;21.53;;;5.60;99.90;;;;;;4983757;28;20177;-81
2023/12/05 11:49:31;;;;;;;36.20;22.27;;;5.50;99.90;;;;;;5034410;28;20228;-82
2023/12/05 11:52:08;;;;;;;35.10;21.23;;;5.60;99.90;;;;;;5034093;28;20189;-82
2023/12/05 11:54:34;;;;;;;35.20;21.07;;;5.60;99.90;;;;;;5034120;28;20169;-83
2023/12/05 11:57:12;;;;;;;36.60;20.93;;;5.60;99.90;;;;;;5034086;28;20170;-83
2023/12/05 11:59:43;;;;;;;36.10;22.00;;;5.60;99.90;;;;;;5034278;28;20185;-83
2023/12/05 12:02:13;;;;;;;34.37;21.77;;;5.70;99.90;;;;;;5033820;28;20213;-84
2023/12/05 12:04:38;;;;;;;39.60;22.50;;;5.70;99.90;;;;;;5033398;28;20189;-84
2023/12/05 12:07:04;;;;;;;36.77;22.10;;;5.70;99.90;;;;;;5034373;28;20174;-83
2023/12/05 12:09:37;;;;;;;39.73;23.37;;;5.60;99.90;;;;;;5032004;28;20245;-83
2023/12/05 12:12:03;;;;;;;45.87;25.27;;;5.50;99.90;;;;;;5023286;28;20243;-82
2023/12/05 12:14:30;;;;;;;45.40;25.83;;;5.50;99.90;;;;;;5014200;28;20257;-82
2023/12/05 12:16:59;;;;;;;41.57;24.53;;;5.50;99.90;;;;;;5029770;28;20174;-82
2023/12/05 12:19:25;;;;;;;41.37;24.67;;;5.60;99.90;;;;;;5013910;28;20178;-82
2023/12/05 12:21:50;;;;;;;37.57;23.23;;;5.60;99.90;;;;;;5015291;28;20347;-82
2023/12/05 12:24:21;;;;;;;36.67;23.17;;;5.50;99.90;;;;;;5013702;28;20197;-83
2023/12/05 12:26:57;;;;;;;32.83;21.63;;;5.70;99.90;;;;;;5013947;28;20210;-83
2023/12/05 12:29:25;;;;;;;32.27;20.10;;;5.70;99.90;;;;;;5013798;28;20257;-82
2023/12/05 12:32:03;;;;;;;29.23;19.03;;;5.70;99.90;;;;;;5013779;28;20651;-82
2023/12/05 12:34:29;;;;;;;30.90;18.57;;;5.60;99.90;;;;;;5013726;28;20193;-81
2023/12/05 12:36:57;;;;;;;29.63;19.70;;;5.70;99.90;;;;;;5014299;28;20193;-83
2023/12/05 12:39:24;;;;;;;29.50;19.03;;;5.90;99.90;;;;;;5013660;28;20175;-82
2023/12/05 12:41:50;;;;;;;26.30;17.93;;;5.90;99.90;;;;;;5014890;28;20214;-82